Time;durP1;ratioP1;P1;durP2;ratioP2;P2;SDS_P1;SDS_P2;PMS_P1;PMS_P2;Temp;Humidity;BMP_temperature;BMP_pressure;BME280_temperature;BME280_humidity;BME280_pressure;Samples;Min_cycle;Max_cycle;Signal;HPM_P1;HPM_P2
2022/08/08 00:02:35;;;;;;;5.53;4.70;;;;;;;13.30;70.66;101082.76;1659104;86;25683;-67
2022/08/08 00:05:17;;;;;;;6.37;4.37;;;;;;;13.27;71.03;101084.16;1668629;86;25634;-69
2022/08/08 00:08:08;;;;;;;5.97;4.03;;;;;;;13.24;70.57;101084.77;1666846;85;27455;-67
2022/08/08 00:10:58;;;;;;;8.55;4.50;;;;;;;13.21;70.11;101086.77;1657865;86;25492;-69
2022/08/08 00:13:52;;;;;;;8.73;4.53;;;;;;;13.15;69.81;101087.19;1661549;86;25420;-69
2022/08/08 00:16:36;;;;;;;7.42;4.80;;;;;;;13.08;69.69;101081.61;1664725;85;25707;-68
2022/08/08 00:19:14;;;;;;;9.50;4.22;;;;;;;13.01;69.80;101086.67;1665636;85;25491;-67
2022/08/08 00:21:48;;;;;;;7.37;4.15;;;;;;;12.96;69.76;101084.06;1659252;86;28076;-69
2022/08/08 00:24:23;;;;;;;6.30;4.40;;;;;;;12.91;70.16;101080.11;1657798;86;25580;-69
2022/08/08 00:26:55;;;;;;;5.40;3.72;;;;;;;12.85;70.06;101083.47;1645050;85;25593;-67
2022/08/08 00:29:26;;;;;;;8.33;4.30;;;;;;;12.80;70.04;101082.22;1633604;87;25684;-69
2022/08/08 00:31:59;;;;;;;7.55;4.62;;;;;;;12.76;70.26;101073.66;1645574;86;25357;-69
2022/08/08 00:37:54;;;;;;;5.20;3.77;;;;;;;12.70;70.50;101068.87;1628338;87;33119;-67
2022/08/08 00:40:50;;;;;;;6.10;4.08;;;;;;;12.67;70.53;101067.58;1679273;83;25432;-66
2022/08/08 00:44:08;;;;;;;6.95;4.17;;;;;;;12.64;70.82;101070.10;1688564;84;25625;-68
2022/08/08 00:46:43;;;;;;;5.80;3.98;;;;;;;12.63;70.67;101074.73;1688587;85;25773;-67
2022/08/08 00:49:42;;;;;;;6.20;4.30;;;;;;;12.62;71.03;101072.32;1682994;84;28094;-67
2022/08/08 00:52:56;;;;;;;7.65;4.53;;;;;;;12.60;70.84;101071.27;1615261;88;25738;-67
2022/08/08 00:55:44;;;;;;;5.85;4.40;;;;;;;12.59;71.20;101077.78;1640321;86;25658;-68
2022/08/08 00:58:31;;;;;;;6.20;4.57;;;;;;;12.56;71.03;101075.67;1655096;86;26448;-67
2022/08/08 01:01:22;;;;;;;7.33;4.87;;;;;;;12.54;71.28;101079.25;1649273;86;25499;-67
2022/08/08 01:04:33;;;;;;;7.03;5.00;;;;;;;12.52;71.47;101070.61;1619988;88;27350;-67
2022/08/08 01:07:24;;;;;;;7.22;4.50;;;;;;;12.50;71.80;101069.56;1642609;86;25732;-68
2022/08/08 01:10:04;;;;;;;5.00;4.33;;;;;;;12.48;71.49;101069.06;1653878;86;25506;-68
2022/08/08 01:12:51;;;;;;;7.05;4.60;;;;;;;12.46;71.72;101067.74;1640314;86;25617;-68
2022/08/08 01:15:55;;;;;;;7.58;5.12;;;;;;;12.44;71.77;101072.67;1650303;86;25698;-67
2022/08/08 01:18:39;;;;;;;6.37;4.22;;;;;;;12.42;72.21;101074.33;1639527;86;28105;-69
2022/08/08 01:21:33;;;;;;;9.00;5.28;;;;;;;12.39;72.13;101073.58;1647646;86;25581;-67
2022/08/08 01:24:43;;;;;;;6.65;4.40;;;;;;;12.36;72.11;101078.80;1637459;86;25927;-68
2022/08/08 01:27:30;;;;;;;6.55;4.75;;;;;;;12.35;72.60;101069.87;1648515;86;26391;-67
2022/08/08 01:30:27;;;;;;;6.55;4.28;;;;;;;12.33;72.43;101074.23;1682431;85;25489;-67
2022/08/08 01:33:33;;;;;;;6.83;4.62;;;;;;;12.33;72.70;101062.59;1684731;85;27326;-67
2022/08/08 01:36:13;;;;;;;7.75;4.40;;;;;;;12.31;72.95;101054.75;1688382;83;25608;-69
2022/08/08 01:39:20;;;;;;;6.12;4.75;;;;;;;12.31;72.75;101057.47;1688484;84;25656;-67
2022/08/08 01:42:11;;;;;;;8.08;4.50;;;;;;;12.30;72.80;101055.84;1686170;85;27753;-69
2022/08/08 01:44:59;;;;;;;9.00;4.65;;;;;;;12.31;72.86;101056.67;1685934;85;25619;-66
2022/08/08 01:47:37;;;;;;;5.03;4.30;;;;;;;12.26;72.79;101052.14;1688689;85;27867;-67
2022/08/08 01:50:27;;;;;;;6.55;4.58;;;;;;;12.25;72.84;101057.30;1688548;85;25582;-69
2022/08/08 01:53:02;;;;;;;7.53;4.60;;;;;;;12.23;73.03;101054.09;1674075;85;25699;-67
2022/08/08 01:55:46;;;;;;;6.97;4.75;;;;;;;12.20;72.80;101053.89;1663885;83;25702;-68
2022/08/08 01:58:42;;;;;;;6.05;4.33;;;;;;;12.20;73.02;101055.25;1688495;84;25450;-69
2022/08/08 02:01:14;;;;;;;6.28;4.42;;;;;;;12.20;73.04;101066.89;1685397;85;27596;-67
2022/08/08 02:03:55;;;;;;;4.92;3.92;;;;;;;12.19;73.00;101066.66;1688379;84;25695;-68
2022/08/08 02:06:55;;;;;;;6.03;4.58;;;;;;;12.20;73.00;101066.09;1688472;84;25666;-68
2022/08/08 02:10:04;;;;;;;7.25;4.37;;;;;;;12.19;73.35;101068.02;1682189;85;25742;-67
2022/08/08 02:12:36;;;;;;;5.77;3.83;;;;;;;12.18;73.03;101072.38;1688718;85;25574;-68
2022/08/08 02:15:13;;;;;;;7.90;4.90;;;;;;;12.14;72.92;101076.25;1687066;83;28102;-67
2022/08/08 02:17:53;;;;;;;7.67;4.90;;;;;;;12.15;73.13;101078.63;1657090;85;25827;-67
2022/08/08 02:23:52;;;;;;;6.37;4.03;;;;;;;12.08;73.44;101078.23;1673101;85;25755;-68
2022/08/08 02:26:36;;;;;;;7.08;4.25;;;;;;;12.03;73.31;101074.83;1660328;85;25655;-68
2022/08/08 02:29:28;;;;;;;6.20;4.53;;;;;;;12.01;73.37;101075.12;1637992;87;25912;-67
2022/08/08 02:32:20;;;;;;;6.53;4.60;;;;;;;12.01;73.74;101083.25;1625732;88;25674;-67
2022/08/08 02:35:31;;;;;;;5.22;4.20;;;;;;;12.00;73.72;101080.84;1672535;85;25730;-69
2022/08/08 02:38:42;;;;;;;8.45;3.95;;;;;;;11.96;73.68;101078.72;1666514;85;26333;-69
2022/08/08 02:41:45;;;;;;;5.78;4.35;;;;;;;11.93;73.49;101086.65;1651631;86;25591;-69
2022/08/08 02:44:33;;;;;;;4.97;4.37;;;;;;;11.92;73.74;101091.27;1657337;85;27508;-69
2022/08/08 02:47:36;;;;;;;5.53;4.15;;;;;;;11.88;73.82;101090.21;1649398;86;25644;-69
2022/08/08 02:50:38;;;;;;;5.50;4.12;;;;;;;11.86;73.73;101090.27;1657326;86;25760;-75
2022/08/08 02:53:38;;;;;;;4.20;3.77;;;;;;;11.85;73.84;101091.36;1657204;85;26324;-68
2022/08/08 02:56:45;;;;;;;5.30;3.85;;;;;;;11.82;73.80;101085.20;1635141;86;25915;-67
2022/08/08 02:59:29;;;;;;;7.00;4.17;;;;;;;11.80;73.80;101092.28;1657394;86;27459;-68
2022/08/08 03:02:19;;;;;;;4.78;3.70;;;;;;;11.77;74.00;101087.45;1655286;86;25450;-67
2022/08/08 03:05:12;;;;;;;6.28;4.22;;;;;;;11.75;73.91;101089.66;1642073;87;25681;-67
2022/08/08 03:08:20;;;;;;;5.87;4.10;;;;;;;11.75;74.12;101101.85;1567952;90;25813;-67
2022/08/08 03:11:28;;;;;;;5.45;4.40;;;;;;;11.71;74.32;101094.87;1616915;88;25696;-67
2022/08/08 03:14:43;;;;;;;5.95;4.30;;;;;;;11.70;74.44;101096.52;1596892;89;27367;-67
2022/08/08 03:17:27;;;;;;;13.83;9.00;;;;;;;11.69;74.59;101098.40;1610836;88;25856;-67
2022/08/08 03:20:04;;;;;;;10.45;7.33;;;;;;;11.68;74.69;101097.34;1605393;88;25564;-67
2022/08/08 03:22:26;;;;;;;6.58;5.10;;;;;;;11.68;74.85;101099.52;1597257;88;25721;-67
2022/08/08 03:24:54;;;;;;;12.07;5.30;;;;;;;11.66;74.79;101096.84;1614592;88;25529;-67
2022/08/08 03:27:41;;;;;;;7.55;5.47;;;;;;;11.67;74.91;101101.97;1614151;88;27333;-67
2022/08/08 03:30:13;;;;;;;7.17;4.42;;;;;;;11.68;75.18;101098.16;1522485;91;25870;-67
2022/08/08 03:35:27;;;;;;;5.53;4.12;;;;;;;11.70;75.16;101103.30;1558992;91;25960;-67
2022/08/08 03:37:54;;;;;;;6.10;4.72;;;;;;;11.70;75.16;101106.00;1566658;91;25821;-67
2022/08/08 03:40:23;;;;;;;4.90;3.80;;;;;;;11.69;75.01;101100.31;1566607;91;27355;-67
2022/08/08 03:42:49;;;;;;;4.70;4.20;;;;;;;11.69;74.82;101102.47;1608578;88;25700;-67
2022/08/08 03:45:25;;;;;;;6.15;4.00;;;;;;;11.69;74.75;101100.31;1623884;88;25739;-69
2022/08/08 03:47:58;;;;;;;7.47;4.20;;;;;;;11.67;74.68;101108.73;1627002;88;26366;-68
2022/08/08 03:50:27;;;;;;;8.03;4.83;;;;;;;11.67;74.80;101105.23;1627258;87;25476;-68
2022/08/08 03:52:54;;;;;;;7.93;4.60;;;;;;;11.66;74.81;101103.61;1627252;88;27355;-69
2022/08/08 03:55:22;;;;;;;6.05;4.58;;;;;;;11.67;74.99;101112.80;1627205;88;25448;-67
2022/08/08 03:57:55;;;;;;;8.00;5.03;;;;;;;11.69;75.19;101108.45;1627041;88;25700;-68
2022/08/08 04:00:26;;;;;;;11.18;4.70;;;;;;;11.71;75.20;101108.95;1637895;86;25707;-68
2022/08/08 04:02:57;;;;;;;6.50;4.95;;;;;;;11.74;75.29;101109.72;1645648;86;25582;-68
2022/08/08 04:05:30;;;;;;;7.33;4.47;;;;;;;11.75;75.42;101108.63;1625400;86;27443;-68
2022/08/08 04:07:58;;;;;;;7.50;4.97;;;;;;;11.78;75.50;101112.08;1655801;86;25489;-67
2022/08/08 04:10:27;;;;;;;6.83;5.03;;;;;;;11.79;75.59;101108.27;1656033;86;25684;-68
2022/08/08 04:12:55;;;;;;;7.33;4.97;;;;;;;11.84;75.75;101110.90;1609546;88;26329;-67
2022/08/08 04:15:22;;;;;;;5.67;4.70;;;;;;;11.86;75.80;101114.67;1642536;86;25858;-69
2022/08/08 04:17:49;;;;;;;7.03;4.95;;;;;;;11.91;75.96;101109.19;1627552;87;27519;-67
2022/08/08 04:20:17;;;;;;;4.90;4.40;;;;;;;11.94;76.04;101114.81;1643373;87;25760;-67
2022/08/08 04:22:43;;;;;;;5.00;4.33;;;;;;;12.01;76.29;101121.77;1635468;86;25720;-67
2022/08/08 04:25:10;;;;;;;9.08;4.78;;;;;;;12.08;76.49;101120.27;1647355;86;25622;-67
2022/08/08 04:27:38;;;;;;;6.37;4.75;;;;;;;12.15;76.68;101123.94;1648357;86;25847;-67
2022/08/08 04:30:07;;;;;;;6.65;5.08;;;;;;;12.23;76.93;101123.26;1652070;86;27332;-67
2022/08/08 04:32:33;;;;;;;5.80;5.17;;;;;;;12.31;76.85;101129.34;1652018;86;32211;-67
2022/08/08 04:35:00;;;;;;;7.22;4.80;;;;;;;12.40;77.01;101125.38;1652109;86;25634;-67
2022/08/08 04:37:26;;;;;;;6.47;4.85;;;;;;;12.50;77.19;101127.10;1650124;86;25671;-67
2022/08/08 04:39:53;;;;;;;7.22;4.12;;;;;;;12.59;77.11;101125.28;1646428;86;25568;-67
2022/08/08 04:42:19;;;;;;;8.78;5.37;;;;;;;12.68;77.31;101125.37;1645415;86;27318;-67
2022/08/08 04:44:46;;;;;;;6.97;5.03;;;;;;;12.78;77.34;101129.80;1645222;86;25743;-67
2022/08/08 04:47:14;;;;;;;9.18;6.37;;;;;;;12.87;77.30;101123.89;1647910;86;25566;-68
2022/08/08 04:49:40;;;;;;;7.90;4.75;;;;;;;12.97;77.67;101126.95;1652204;86;25635;-68
2022/08/08 04:52:07;;;;;;;8.48;4.90;;;;;;;13.08;77.53;101120.20;1652702;86;25650;-68
2022/08/08 04:54:34;;;;;;;5.65;5.05;;;;;;;13.17;77.64;101125.70;1649852;86;27540;-68
2022/08/08 04:57:01;;;;;;;10.65;5.03;;;;;;;13.27;77.50;101128.98;1662260;85;25352;-68
2022/08/08 04:59:27;;;;;;;11.80;7.28;;;;;;;13.39;77.63;101129.84;1681246;84;25362;-68
2022/08/08 05:01:54;;;;;;;10.45;7.37;;;;;;;13.49;77.54;101124.73;1683498;85;25662;-68
2022/08/08 05:04:21;;;;;;;11.93;8.08;;;;;;;13.59;77.62;101122.33;1682746;85;25726;-69
2022/08/08 05:06:47;;;;;;;11.28;6.97;;;;;;;13.70;77.65;101125.02;1684415;85;27436;-69
2022/08/08 05:09:14;;;;;;;8.85;5.12;;;;;;;13.81;77.64;101125.59;1673200;85;25857;-68
2022/08/08 05:11:41;;;;;;;6.67;4.35;;;;;;;13.91;77.33;101132.67;1669357;85;25791;-69
2022/08/08 05:14:10;;;;;;;8.38;4.78;;;;;;;14.03;77.72;101134.82;1677018;85;26417;-69
2022/08/08 05:16:37;;;;;;;8.25;4.00;;;;;;;14.16;77.89;101138.02;1639794;86;25487;-67
2022/08/08 05:19:04;;;;;;;7.70;4.30;;;;;;;14.29;78.09;101132.25;1641728;86;27402;-68
2022/08/08 05:21:30;;;;;;;8.10;4.05;;;;;;;14.43;77.83;101132.94;1643837;86;25607;-68
2022/08/08 05:23:58;;;;;;;6.97;4.45;;;;;;;14.56;77.68;101130.66;1652663;86;25467;-68
2022/08/08 05:26:25;;;;;;;6.17;4.17;;;;;;;14.72;77.55;101132.41;1657227;86;25634;-69
2022/08/08 05:28:51;;;;;;;8.25;4.90;;;;;;;14.88;77.31;101136.88;1657282;86;25559;-68
2022/08/08 05:31:18;;;;;;;5.75;3.20;;;;;;;15.05;77.53;101136.64;1688434;85;28113;-68
2022/08/08 05:33:44;;;;;;;7.20;3.58;;;;;;;15.22;77.23;101138.05;1688451;85;25467;-68
2022/08/08 05:36:13;;;;;;;5.95;3.17;;;;;;;15.41;76.86;101138.27;1657338;86;25496;-68
2022/08/08 05:38:51;;;;;;;3.92;3.05;;;;;;;15.58;76.32;101143.73;1651203;86;25816;-68
2022/08/08 05:41:23;;;;;;;4.87;3.22;;;;;;;15.78;76.19;101142.30;1657365;86;25732;-68
2022/08/08 05:43:57;;;;;;;6.42;3.50;;;;;;;16.00;76.06;101145.36;1657279;86;27409;-68
2022/08/08 05:46:26;;;;;;;4.75;2.80;;;;;;;16.20;75.61;101145.80;1656946;86;25476;-68
2022/08/08 05:48:54;;;;;;;3.80;2.83;;;;;;;16.43;75.24;101153.20;1688664;85;25629;-69
2022/08/08 05:51:21;;;;;;;4.90;2.98;;;;;;;16.64;75.08;101149.16;1688410;85;25693;-69
2022/08/08 05:53:48;;;;;;;3.77;2.67;;;;;;;16.86;74.36;101150.05;1657319;86;26051;-69
2022/08/08 05:56:18;;;;;;;4.22;2.83;;;;;;;17.04;73.82;101150.14;1657223;86;28163;-69
2022/08/08 05:58:50;;;;;;;3.83;2.35;;;;;;;17.24;73.52;101150.50;1652808;86;25500;-69
2022/08/08 06:01:19;;;;;;;4.70;2.30;;;;;;;17.44;72.81;101151.06;1652851;86;25510;-67
2022/08/08 06:03:48;;;;;;;4.17;2.27;;;;;;;17.59;72.36;101146.92;1626600;88;26391;-67
2022/08/08 06:06:16;;;;;;;4.37;2.40;;;;;;;17.77;71.89;101153.59;1688722;85;25434;-67
2022/08/08 06:08:50;;;;;;;3.15;2.37;;;;;;;17.91;71.63;101149.45;1688520;84;27548;-68
2022/08/08 06:11:17;;;;;;;4.60;2.62;;;;;;;18.09;71.02;101158.84;1688349;85;25431;-69
2022/08/08 06:13:45;;;;;;;4.95;2.27;;;;;;;18.25;70.78;101152.95;1688515;84;25592;-68
2022/08/08 06:16:12;;;;;;;3.85;2.08;;;;;;;18.43;70.30;101154.10;1639954;86;26313;-68
2022/08/08 06:18:40;;;;;;;3.75;2.22;;;;;;;18.59;69.39;101166.54;1657269;86;25647;-68
2022/08/08 06:21:09;;;;;;;3.40;2.75;;;;;;;18.74;69.09;101160.95;1687387;85;27295;-68
2022/08/08 06:23:36;;;;;;;3.75;2.60;;;;;;;18.93;69.30;101154.33;1652573;85;25933;-68
2022/08/08 06:26:09;;;;;;;4.08;2.80;;;;;;;19.13;69.31;101162.77;1614748;87;25645;-68
2022/08/08 06:28:43;;;;;;;4.58;2.60;;;;;;;19.33;69.20;101161.80;1614446;87;25584;-69
2022/08/08 06:31:12;;;;;;;3.80;2.55;;;;;;;19.56;68.38;101159.88;1614443;87;25514;-68
2022/08/08 06:34:10;;;;;;;4.17;2.25;;;;;;;19.80;67.87;101159.00;1606302;87;26875;-67
2022/08/08 06:36:42;;;;;;;5.33;2.95;;;;;;;20.06;67.19;101160.48;1611414;87;25516;-68
2022/08/08 06:39:13;;;;;;;3.47;1.85;;;;;;;20.32;66.54;101159.97;1628663;87;25456;-68
2022/08/08 06:41:44;;;;;;;4.28;2.02;;;;;;;20.61;65.94;101170.28;1613014;87;25773;-67
2022/08/08 06:44:16;;;;;;;4.40;2.00;;;;;;;20.88;65.39;101165.25;1613305;87;25639;-67
2022/08/08 06:46:44;;;;;;;3.10;1.60;;;;;;;21.17;64.53;101157.63;1614404;87;27348;-68
2022/08/08 06:49:12;;;;;;;2.90;1.60;;;;;;;21.44;62.22;101165.47;1620840;87;25330;-66
2022/08/08 06:51:39;;;;;;;3.33;1.67;;;;;;;21.62;61.34;101165.87;1621665;87;25776;-66
2022/08/08 06:54:08;;;;;;;4.80;2.20;;;;;;;21.85;60.89;101168.45;1631931;87;25754;-67
2022/08/08 06:56:36;;;;;;;4.65;2.02;;;;;;;22.14;61.26;101171.93;1623807;87;25697;-68
2022/08/08 06:59:04;;;;;;;4.15;1.67;;;;;;;22.43;59.78;101171.07;1608835;88;27436;-68
2022/08/08 07:01:47;;;;;;;5.10;1.42;;;;;;;22.66;59.23;101175.75;1633776;87;25594;-67
2022/08/08 07:04:27;;;;;;;2.70;1.37;;;;;;;22.94;58.44;101172.64;1572593;89;25727;-67
2022/08/08 07:06:59;;;;;;;4.47;1.30;;;;;;;23.19;56.40;101174.39;1608723;87;25482;-66
2022/08/08 07:09:34;;;;;;;4.00;1.17;;;;;;;23.42;56.51;101176.25;1590407;88;25720;-67
2022/08/08 07:12:06;;;;;;;3.25;1.50;;;;;;;23.76;55.73;101181.18;1612138;88;27375;-69
2022/08/08 07:14:44;;;;;;;3.65;1.82;;;;;;;24.12;55.24;101173.28;1620185;87;25882;-68
2022/08/08 07:17:17;;;;;;;5.55;1.65;;;;;;;24.51;54.16;101173.42;1605696;87;25461;-66
2022/08/08 07:19:52;;;;;;;1.70;1.10;;;;;;;24.80;53.21;101171.67;1632496;86;25638;-68
2022/08/08 07:22:23;;;;;;;3.20;1.32;;;;;;;25.07;52.42;101172.83;1627544;87;25642;-67
2022/08/08 07:24:58;;;;;;;3.40;1.00;;;;;;;25.39;51.82;101172.19;1629281;86;28062;-68
2022/08/08 07:27:29;;;;;;;2.25;1.30;;;;;;;25.75;51.09;101179.26;1645525;86;25507;-67
2022/08/08 07:29:58;;;;;;;4.47;1.20;;;;;;;26.07;50.22;101173.20;1648479;87;25640;-68
2022/08/08 07:32:24;;;;;;;;;;;;;;;26.34;49.00;101172.83;1632836;87;25669;-66
2022/08/08 07:34:54;;;;;;;3.33;1.10;;;;;;;26.64;47.82;101176.58;1634705;87;25756;-66
2022/08/08 07:37:22;;;;;;;2.90;0.98;;;;;;;26.92;47.57;101174.16;1638566;87;27384;-66
2022/08/08 07:39:50;;;;;;;6.80;1.35;;;;;;;27.20;47.84;101181.62;1637972;87;25665;-67
2022/08/08 07:42:20;;;;;;;10.23;7.23;;;;;;;27.50;46.62;101176.19;1640243;87;25675;-66
2022/08/08 07:44:47;;;;;;;2.30;1.40;;;;;;;27.70;45.97;101178.66;1631718;87;25822;-66
2022/08/08 07:47:14;;;;;;;2.30;1.07;;;;;;;28.00;45.06;101175.11;1629211;87;25760;-66
2022/08/08 07:49:41;;;;;;;2.77;1.20;;;;;;;28.16;44.07;101175.38;1629434;87;28041;-66
2022/08/08 07:52:12;;;;;;;3.35;1.20;;;;;;;28.30;43.04;101173.89;1629850;87;25728;-66
2022/08/08 07:55:00;;;;;;;3.30;1.32;;;;;;;28.37;42.72;101170.25;1627288;87;25685;-67
2022/08/08 07:57:41;;;;;;;1.75;0.90;;;;;;;28.44;41.79;101170.19;1628787;86;26272;-66
2022/08/08 08:00:11;;;;;;;1.10;1.00;;;;;;;28.44;41.43;101174.97;1623092;86;25430;-66
2022/08/08 08:02:45;;;;;;;2.08;1.30;;;;;;;28.32;41.19;101174.87;1640772;86;27321;-65
2022/08/08 08:05:26;;;;;;;4.72;1.00;;;;;;;28.28;41.26;101176.88;1632614;87;25742;-66
2022/08/08 08:08:18;;;;;;;2.60;1.37;;;;;;;28.45;41.69;101177.34;1624642;87;25803;-66
2022/08/08 08:10:51;;;;;;;3.58;1.12;;;;;;;28.77;41.50;101170.69;1614832;87;25708;-65
2022/08/08 08:13:37;;;;;;;1.70;0.95;;;;;;;28.72;40.71;101178.70;1596404;87;34336;-65
2022/08/08 08:16:24;;;;;;;3.87;1.25;;;;;;;28.48;40.47;101186.23;1583990;88;27528;-66
2022/08/08 08:18:58;;;;;;;1.95;1.15;;;;;;;28.17;40.22;101182.53;1581695;89;25783;-66
2022/08/08 08:21:31;;;;;;;3.92;1.35;;;;;;;27.97;40.23;101185.66;1585031;89;25766;-66
2022/08/08 08:23:58;;;;;;;3.37;1.10;;;;;;;27.87;40.87;101181.71;1579564;90;25611;-66
2022/08/08 08:26:24;;;;;;;5.00;0.98;;;;;;;28.03;40.89;101181.25;1575473;89;25776;-67
2022/08/08 08:28:51;;;;;;;1.98;0.98;;;;;;;28.11;40.70;101179.98;1575717;88;27420;-67
2022/08/08 08:31:17;;;;;;;3.15;1.02;;;;;;;28.37;40.78;101179.21;1600041;89;27163;-66
2022/08/08 08:33:44;;;;;;;1.85;0.70;;;;;;;28.58;40.14;101172.68;1588955;89;25809;-65
2022/08/08 08:36:11;;;;;;;10.30;5.10;;;;;;;28.65;39.40;101176.17;1584727;90;25794;-66
2022/08/08 08:38:38;;;;;;;1.12;0.88;;;;;;;28.61;39.22;101172.64;1582034;90;25308;-67
2022/08/08 08:41:10;;;;;;;1.60;0.90;;;;;;;28.49;38.33;101178.70;1585301;88;27328;-67
2022/08/08 08:43:38;;;;;;;4.03;0.85;;;;;;;28.26;37.99;101172.33;1592195;89;25698;-67
2022/08/08 08:46:11;;;;;;;1.40;1.00;;;;;;;28.02;38.07;101181.05;1572387;90;25757;-68
2022/08/08 08:48:40;;;;;;;3.27;1.45;;;;;;;27.79;38.08;101176.81;1592175;90;25790;-67
2022/08/08 08:51:12;;;;;;;1.30;0.80;;;;;;;27.54;37.80;101180.50;1576491;90;25761;-66
2022/08/08 08:53:51;;;;;;;3.72;0.72;;;;;;;27.30;37.85;101178.04;1582547;90;27339;-67
2022/08/08 08:56:24;;;;;;;3.45;1.15;;;;;;;27.11;38.21;101175.11;1587953;89;26159;-68
2022/08/08 08:58:51;;;;;;;1.62;1.00;;;;;;;26.99;38.58;101174.16;1587924;88;25769;-68
2022/08/08 09:01:23;;;;;;;3.30;0.80;;;;;;;26.82;38.75;101166.86;1587719;90;25783;-68
2022/08/08 09:03:50;;;;;;;2.62;0.90;;;;;;;26.70;38.74;101170.05;1587565;88;26221;-68
2022/08/08 09:06:21;;;;;;;1.20;0.80;;;;;;;26.66;38.76;101170.64;1580510;90;27366;-68
2022/08/08 09:08:53;;;;;;;3.50;0.72;;;;;;;26.89;39.78;101170.21;1578120;88;25874;-68
2022/08/08 09:11:20;;;;;;;3.85;0.88;;;;;;;27.49;40.19;101165.64;1578497;88;25419;-68
2022/08/08 09:13:47;;;;;;;1.62;0.75;;;;;;;27.97;38.80;101167.59;1585299;88;40977;-69
2022/08/08 09:16:15;;;;;;;0.60;0.60;;;;;;;28.00;38.01;101161.22;1580204;89;25407;-68
2022/08/08 09:18:43;;;;;;;2.05;0.85;;;;;;;27.95;37.90;101163.22;1582398;89;27368;-68
2022/08/08 09:21:10;;;;;;;2.67;0.80;;;;;;;27.90;37.69;101171.17;1567551;90;25862;-66
2022/08/08 09:23:38;;;;;;;1.12;0.95;;;;;;;27.81;37.65;101161.91;1589458;89;25741;-68
2022/08/08 09:26:28;;;;;;;1.47;0.70;;;;;;;27.68;37.43;101167.12;1603943;89;26370;-66
2022/08/08 09:28:57;;;;;;;2.62;1.10;;;;;;;27.56;37.54;101160.66;1538389;91;25845;-67
2022/08/08 09:31:49;;;;;;;;;;;;;;;27.75;37.05;101160.73;1548439;91;27519;-67
2022/08/08 09:34:19;;;;;;;1.42;0.68;;;;;;;27.62;36.74;101162.40;1543762;91;25824;-68
2022/08/08 09:36:47;;;;;;;2.70;1.00;;;;;;;27.39;37.15;101162.33;1526740;91;25791;-68
2022/08/08 09:39:19;;;;;;;1.70;0.98;;;;;;;27.14;37.59;101163.78;1525579;92;32638;-67
2022/08/08 09:42:00;;;;;;;1.95;0.88;;;;;;;26.91;38.02;101169.20;1526500;92;25757;-66
2022/08/08 09:44:55;;;;;;;1.87;0.85;;;;;;;26.70;38.59;101166.47;1531609;92;27358;-67
2022/08/08 09:47:23;;;;;;;2.10;0.95;;;;;;;26.70;39.15;101162.30;1530294;92;25706;-67
2022/08/08 09:49:50;;;;;;;3.00;1.15;;;;;;;26.91;40.16;101156.72;1529270;92;25869;-66
2022/08/08 09:52:22;;;;;;;1.80;0.70;;;;;;;27.53;40.01;101153.94;1510535;93;27415;-67
2022/08/08 09:54:50;;;;;;;1.87;0.60;;;;;;;28.03;39.18;101151.45;1522062;92;25795;-66
2022/08/08 09:57:21;;;;;;;1.82;0.80;;;;;;;28.64;38.80;101158.48;1516043;93;27366;-65
2022/08/08 09:59:50;;;;;;;0.93;0.70;;;;;;;29.28;37.88;101160.41;1528007;92;26057;-66
2022/08/08 10:02:27;;;;;;;0.85;0.80;;;;;;;29.33;37.11;101161.34;1535146;90;25748;-66
2022/08/08 10:05:02;;;;;;;1.02;0.85;;;;;;;29.34;36.08;101159.52;1550082;90;25778;-66
2022/08/08 10:07:28;;;;;;;1.45;0.60;;;;;;;29.40;36.21;101162.02;1589064;89;25850;-66
2022/08/08 10:09:55;;;;;;;2.05;0.80;;;;;;;29.59;35.34;101153.62;1605166;89;28238;-66
2022/08/08 10:12:32;;;;;;;2.52;0.98;;;;;;;29.73;36.12;101149.83;1603466;89;25728;-65
2022/08/08 10:15:01;;;;;;;3.12;0.70;;;;;;;30.24;35.20;101153.23;1597541;89;25876;-66
2022/08/08 10:17:32;;;;;;;3.67;1.10;;;;;;;30.72;34.56;101148.63;1597573;89;26480;-67
2022/08/08 10:20:00;;;;;;;1.60;0.80;;;;;;;31.09;34.40;101158.49;1599965;88;25797;-65
2022/08/08 10:22:28;;;;;;;1.30;0.70;;;;;;;31.51;33.51;101143.46;1599277;88;29169;-65
2022/08/08 10:25:06;;;;;;;2.30;0.62;;;;;;;31.71;32.80;101145.43;1591382;88;26501;-65
2022/08/08 10:27:41;;;;;;;1.77;0.82;;;;;;;31.44;32.18;101153.38;1589590;89;25667;-65
2022/08/08 10:30:10;;;;;;;2.77;0.68;;;;;;;31.08;32.13;101154.14;1602278;89;26268;-65
2022/08/08 10:32:43;;;;;;;4.12;1.07;;;;;;;31.14;32.46;101148.83;1570788;89;32407;-65
2022/08/08 10:35:15;;;;;;;2.17;0.82;;;;;;;31.18;32.28;101152.35;1627422;87;27979;-65
2022/08/08 10:38:00;;;;;;;4.22;0.95;;;;;;;31.06;32.28;101145.41;1615027;87;26856;-65
2022/08/08 10:40:29;;;;;;;1.27;0.72;;;;;;;31.53;32.87;101134.64;1623034;87;25691;-64
2022/08/08 10:42:58;;;;;;;;;;;;;;;32.04;32.49;101132.22;1625262;87;25872;-66
2022/08/08 10:45:26;;;;;;;1.60;0.60;;;;;;;32.65;31.23;101136.30;1625946;86;25568;-65
2022/08/08 10:47:58;;;;;;;2.77;0.80;;;;;;;33.54;29.85;101141.16;1626969;87;28124;-65
2022/08/08 10:50:35;;;;;;;1.82;0.88;;;;;;;33.54;29.85;101141.16;1611182;87;25747;-65
2022/08/08 10:53:07;;;;;;;3.10;0.50;;;;;;;33.82;29.61;101124.07;1627056;86;25729;-65
2022/08/08 10:55:39;;;;;;;0.78;0.53;;;;;;;34.18;28.70;101126.45;1623331;87;25675;-66
2022/08/08 10:58:08;;;;;;;0.95;0.60;;;;;;;34.43;28.11;101125.62;1625294;87;25734;-66
2022/08/08 11:00:43;;;;;;;2.15;0.47;;;;;;;34.61;27.41;101126.37;1631059;87;27406;-65
2022/08/08 11:03:15;;;;;;;1.50;0.70;;;;;;;34.87;27.05;101123.48;1630930;87;25306;-65
2022/08/08 11:05:48;;;;;;;3.40;0.70;;;;;;;35.11;26.94;101127.19;1631509;87;25655;-66
2022/08/08 11:08:30;;;;;;;1.45;0.60;;;;;;;35.26;26.28;101126.82;1631013;87;26391;-65
2022/08/08 11:11:08;;;;;;;0.82;0.42;;;;;;;35.38;25.61;101122.34;1631593;87;25614;-65
2022/08/08 11:13:44;;;;;;;0.82;0.55;;;;;;;35.29;25.11;101120.28;1627362;86;27957;-65
2022/08/08 11:16:24;;;;;;;2.37;0.80;;;;;;;35.41;24.69;101120.66;1626989;87;25803;-65
2022/08/08 11:18:51;;;;;;;2.47;1.00;;;;;;;35.49;24.45;101120.53;1612784;86;25770;-65
2022/08/08 11:21:18;;;;;;;0.98;0.88;;;;;;;35.35;24.66;101123.30;1625096;87;26236;-65
2022/08/08 11:23:47;;;;;;;1.30;0.50;;;;;;;35.34;24.81;101118.27;1593085;89;25786;-65
2022/08/08 11:26:16;;;;;;;0.98;0.78;;;;;;;35.41;24.78;101114.39;1625471;87;28122;-65
2022/08/08 11:28:45;;;;;;;2.50;0.70;;;;;;;35.56;25.06;101110.40;1621265;88;25795;-66
2022/08/08 11:31:17;;;;;;;0.68;0.53;;;;;;;35.56;24.61;101107.58;1615005;88;25787;-65
2022/08/08 11:33:51;;;;;;;2.10;0.82;;;;;;;35.36;24.79;101109.38;1618417;87;25758;-67
2022/08/08 11:36:19;;;;;;;3.20;1.20;;;;;;;35.36;25.12;101105.16;1619237;88;25745;-72
2022/08/08 11:38:47;;;;;;;2.75;0.80;;;;;;;35.19;24.68;101110.20;1601070;88;27908;-66
2022/08/08 11:41:16;;;;;;;3.02;1.05;;;;;;;34.74;24.82;101104.50;1603708;89;25777;-69
2022/08/08 11:43:44;;;;;;;1.52;0.70;;;;;;;34.00;25.03;101103.82;1622147;88;25654;-64
2022/08/08 11:46:12;;;;;;;3.42;1.02;;;;;;;33.16;25.72;101101.28;1625926;88;25756;-65
2022/08/08 11:48:39;;;;;;;1.07;0.80;;;;;;;32.20;26.65;101096.50;1623879;88;25746;-66
2022/08/08 11:51:06;;;;;;;3.00;0.80;;;;;;;31.30;27.20;101098.59;1611611;88;27419;-67
2022/08/08 11:53:33;;;;;;;1.10;0.75;;;;;;;30.59;27.54;101101.61;1615056;87;25786;-65
2022/08/08 11:56:00;;;;;;;3.42;1.52;;;;;;;29.90;28.03;101103.41;1618064;88;25813;-66
2022/08/08 11:58:34;;;;;;;3.60;2.40;;;;;;;29.33;29.52;101103.61;1621406;88;27846;-64
2022/08/08 12:01:05;;;;;;;1.87;1.30;;;;;;;28.93;30.68;101103.90;1614130;88;25664;-65
2022/08/08 12:03:37;;;;;;;1.82;0.98;;;;;;;28.60;31.66;101096.52;1603299;89;27339;-65
2022/08/08 12:06:13;;;;;;;4.97;0.80;;;;;;;28.30;31.73;101100.17;1623019;88;25966;-65
2022/08/08 12:08:40;;;;;;;1.45;0.78;;;;;;;27.98;31.98;101102.45;1610740;88;25699;-63
2022/08/08 12:11:13;;;;;;;2.98;0.90;;;;;;;28.03;34.46;101097.23;1611180;88;25783;-64
2022/08/08 12:13:41;;;;;;;0.85;0.85;;;;;;;28.45;34.09;101095.84;1658191;85;25720;-64
2022/08/08 12:16:17;;;;;;;2.15;0.70;;;;;;;28.94;32.60;101094.35;1660543;86;28188;-65